createdAt,value
2022-12-03T00:02:16.994Z,102081.44
2022-12-03T00:04:43.875Z,102086.13
2022-12-03T00:07:10.700Z,102080.38
2022-12-03T00:09:37.434Z,102080.75
2022-12-03T00:12:04.325Z,102082.56
2022-12-03T00:14:31.054Z,102082.56
2022-12-03T00:16:57.777Z,102085.75
2022-12-03T00:19:24.654Z,102077.88
2022-12-03T00:21:51.387Z,102078.59
2022-12-03T00:24:18.131Z,102081.81
2022-12-03T00:26:44.931Z,102075.72
2022-12-03T00:29:11.675Z,102080.34
2022-12-03T00:31:38.472Z,102081.78
2022-12-03T00:34:05.363Z,102085.91
2022-12-03T00:36:32.087Z,102086.78
2022-12-03T00:38:58.885Z,102085.34
2022-12-03T00:41:25.641Z,102086.78
2022-12-03T00:43:57.371Z,102086.09
2022-12-03T00:46:25.385Z,102085.34
2022-12-03T00:48:52.375Z,102082.53
2022-12-03T00:51:19.400Z,102091.13
2022-12-03T00:53:46.169Z,102095.94
2022-12-03T00:56:12.921Z,102095.75
2022-12-03T00:58:39.676Z,102100.06
2022-12-03T01:01:06.432Z,102096.84
2022-12-03T01:03:33.216Z,102109.38
2022-12-03T01:06:00.017Z,102107.94
2022-12-03T01:08:26.707Z,102106.50
2022-12-03T01:10:53.475Z,102110.63
2022-12-03T01:13:20.191Z,102109.75
2022-12-03T01:15:47.994Z,102111.16
2022-12-03T01:18:14.887Z,102112.22
2022-12-03T01:20:41.655Z,102105.06
2022-12-03T01:23:08.390Z,102103.81
2022-12-03T01:25:35.239Z,102114.16
2022-12-03T01:28:01.970Z,102115.38
2022-12-03T01:30:28.778Z,102109.66
2022-12-03T01:32:55.547Z,102113.59
2022-12-03T01:35:22.288Z,102118.91
2022-12-03T01:37:49.020Z,102108.00
2022-12-03T01:40:20.045Z,102117.16
2022-12-03T01:42:46.876Z,102118.19
2022-12-03T01:45:23.987Z,102108.38
2022-12-03T01:47:51.176Z,102120.66
2022-12-03T01:50:31.881Z,102120.66
2022-12-03T01:53:01.548Z,102121.91
2022-12-03T01:55:28.761Z,102120.06
2022-12-03T01:57:58.960Z,102130.41
2022-12-03T02:00:27.356Z,102127.72
2022-12-03T02:02:57.655Z,102125.56
2022-12-03T02:05:27.527Z,102128.03
2022-12-03T02:07:55.376Z,102133.19
2022-12-03T02:10:36.169Z,102130.50
2022-12-03T02:13:08.877Z,102128.69
2022-12-03T02:15:38.310Z,102135.25
2022-12-03T02:18:05.715Z,102129.66
2022-12-03T02:20:45.519Z,102134.88
2022-12-03T02:24:00.863Z,102131.88
2022-12-03T02:26:27.890Z,102143.59
2022-12-03T02:28:54.654Z,102136.44
2022-12-03T02:31:22.541Z,102134.25
2022-12-03T02:33:49.711Z,102138.34
2022-12-03T02:36:16.802Z,102136.03
2022-12-03T02:38:46.108Z,102132.84
2022-12-03T02:41:35.688Z,102131.03
2022-12-03T02:44:03.684Z,102131.19
2022-12-03T02:46:30.927Z,102135.78
2022-12-03T02:48:59.003Z,102133.63
2022-12-03T02:51:26.876Z,102134.84
2022-12-03T02:53:55.154Z,102137.34
2022-12-03T02:56:26.618Z,102138.06
2022-12-03T02:58:58.323Z,102138.78
2022-12-03T03:01:25.269Z,102144.78
2022-12-03T03:03:52.803Z,102148.72
2022-12-03T03:06:20.882Z,102144.72
2022-12-03T03:08:48.380Z,102143.66
2022-12-03T03:11:15.210Z,102151.47
2022-12-03T03:13:42.160Z,102147.91
2022-12-03T03:16:09.490Z,102152.91
2022-12-03T03:18:36.988Z,102150.41
2022-12-03T03:21:04.303Z,102157.69
2022-12-03T03:23:31.441Z,102156.09
2022-12-03T03:26:12.791Z,102155.75
2022-12-03T03:28:44.103Z,102158.25
2022-12-03T03:31:14.302Z,102162.19
2022-12-03T03:33:43.305Z,102161.63
2022-12-03T03:36:10.440Z,102162.09
2022-12-03T03:38:38.852Z,102157.09
2022-12-03T03:41:07.828Z,102158.13
2022-12-03T03:43:35.612Z,102163.25
2022-12-03T03:46:05.441Z,102170.56
2022-12-03T03:48:34.558Z,102159.28
2022-12-03T03:51:03.813Z,102170.19
2022-12-03T03:53:31.004Z,102171.56
2022-12-03T03:55:57.827Z,102170.47
2022-12-03T03:58:24.576Z,102172.63
2022-12-03T04:00:51.924Z,102172.22
2022-12-03T04:03:21.679Z,102167.91
2022-12-03T04:05:51.090Z,102179.00
2022-12-03T04:08:21.071Z,102177.69
2022-12-03T04:11:06.404Z,102177.81
2022-12-03T04:13:33.142Z,102181.72
2022-12-03T04:15:59.927Z,102188.13
2022-12-03T04:18:44.935Z,102187.09
2022-12-03T04:21:32.299Z,102186.03
2022-12-03T04:23:59.327Z,102189.22
2022-12-03T04:26:44.434Z,102190.25
2022-12-03T04:29:11.726Z,102189.91
2022-12-03T04:31:57.300Z,102195.38
2022-12-03T04:34:43.568Z,102199.50
2022-12-03T04:37:10.721Z,102197.00
2022-12-03T04:39:37.611Z,102201.19
2022-12-03T04:42:05.776Z,102204.06
2022-12-03T04:44:33.283Z,102209.06
2022-12-03T04:47:05.991Z,102208.06
2022-12-03T04:49:34.192Z,102214.47
2022-12-03T04:52:00.970Z,102209.97
2022-12-03T04:54:28.663Z,102210.88
2022-12-03T04:56:55.574Z,102215.38
2022-12-03T04:59:22.656Z,102220.75
2022-12-03T05:01:49.471Z,102224.72
2022-12-03T05:04:16.728Z,102222.44
2022-12-03T05:06:43.583Z,102227.91
2022-12-03T05:09:10.982Z,102234.72
2022-12-03T05:11:37.822Z,102220.63
2022-12-03T05:14:05.130Z,102232.91
2022-12-03T05:16:32.210Z,102232.06
2022-12-03T05:18:58.967Z,102235.59
2022-12-03T05:21:25.787Z,102230.25
2022-12-03T05:23:52.583Z,102236.66
2022-12-03T05:26:19.276Z,102238.47
2022-12-03T05:28:46.122Z,102235.25
2022-12-03T05:31:13.136Z,102242.03
2022-12-03T05:33:44.266Z,102245.03
2022-12-03T05:36:11.487Z,102248.94
2022-12-03T05:38:38.410Z,102246.22
2022-12-03T05:41:28.353Z,102246.22
2022-12-03T05:43:55.114Z,102245.53
2022-12-03T05:46:21.989Z,102256.75
2022-12-03T05:48:48.762Z,102246.22
2022-12-03T05:51:15.466Z,102255.75
2022-12-03T05:53:42.246Z,102254.34
2022-12-03T05:56:09.057Z,102258.66
2022-12-03T05:58:35.769Z,102252.41
2022-12-03T06:01:02.534Z,102256.38
2022-12-03T06:03:29.483Z,102255.00
2022-12-03T06:05:56.267Z,102246.78
2022-12-03T06:08:23.004Z,102247.19
2022-12-03T06:10:49.787Z,102253.34
2022-12-03T06:13:16.530Z,102252.03
2022-12-03T06:15:44.186Z,102238.91
2022-12-03T06:18:11.540Z,102245.56
2022-12-03T06:20:38.315Z,102241.56
2022-12-03T06:23:05.362Z,102240.72
2022-12-03T06:25:32.160Z,102245.63
2022-12-03T06:27:58.939Z,102249.97
2022-12-03T06:30:25.699Z,102246.66
2022-12-03T06:32:52.753Z,102252.22
2022-12-03T06:35:19.563Z,102245.50
2022-12-03T06:37:46.403Z,102246.66
2022-12-03T06:40:13.664Z,102243.50
2022-12-03T06:42:40.434Z,102239.44
2022-12-03T06:45:07.479Z,102244.69
2022-12-03T06:47:34.285Z,102244.56
2022-12-03T06:50:01.064Z,102241.91
2022-12-03T06:52:27.901Z,102246.03
2022-12-03T06:54:54.837Z,102240.19
2022-12-03T06:57:21.835Z,102246.63
2022-12-03T06:59:48.573Z,102243.81
2022-12-03T07:02:15.324Z,102242.91
2022-12-03T07:04:46.120Z,102246.31
2022-12-03T07:07:18.592Z,102239.50
2022-12-03T07:09:53.562Z,102235.59
2022-12-03T07:12:20.415Z,102238.47
2022-12-03T07:14:47.104Z,102234.53
2022-12-03T07:17:14.084Z,102239.03
2022-12-03T07:19:40.851Z,102237.09
2022-12-03T07:22:07.683Z,102236.75
2022-12-03T07:24:34.471Z,102229.59
2022-12-03T07:27:01.222Z,102229.44
2022-12-03T07:29:28.006Z,102233.97
2022-12-03T07:31:54.797Z,102230.22
2022-12-03T07:34:21.672Z,102232.91
2022-12-03T07:36:48.403Z,102235.94
2022-12-03T07:39:15.387Z,102235.09
2022-12-03T07:41:42.152Z,102234.22
2022-12-03T07:44:13.979Z,102227.63
2022-12-03T07:46:41.958Z,102234.44
2022-12-03T07:49:08.927Z,102231.25
2022-12-03T07:51:35.796Z,102233.09
2022-12-03T07:54:02.577Z,102228.41
2022-12-03T07:56:29.452Z,102230.94
2022-12-03T07:58:56.276Z,102227.94
2022-12-03T08:01:23.174Z,102219.53
2022-12-03T08:03:49.959Z,102227.75
2022-12-03T08:06:16.770Z,102215.91
2022-12-03T08:08:43.787Z,102223.78
2022-12-03T08:11:14.991Z,102222.72
2022-12-03T08:13:41.736Z,102227.03
2022-12-03T08:16:20.670Z,102217.50
2022-12-03T08:18:49.514Z,102220.53
2022-12-03T08:21:18.666Z,102213.34
2022-12-03T08:23:45.931Z,102217.28
2022-12-03T08:26:28.797Z,102220.50
2022-12-03T08:28:55.786Z,102217.25
2022-12-03T08:31:32.250Z,102215.28
2022-12-03T08:34:15.618Z,102216.88
2022-12-03T08:36:42.560Z,102210.03
2022-12-03T08:39:24.619Z,102210.34
2022-12-03T08:42:19.813Z,102210.69
2022-12-03T08:44:46.606Z,102209.25
2022-12-03T08:47:21.451Z,102207.59
2022-12-03T08:49:58.086Z,102214.59
2022-12-03T08:52:31.702Z,102212.03
2022-12-03T08:55:00.163Z,102203.47
2022-12-03T08:57:29.847Z,102215.16
2022-12-03T09:00:01.201Z,102205.28
2022-12-03T09:02:34.404Z,102210.97
2022-12-03T09:05:21.536Z,102213.81
2022-12-03T09:07:48.866Z,102205.41
2022-12-03T09:10:15.862Z,102215.59
2022-12-03T09:12:42.627Z,102209.44
2022-12-03T09:15:09.932Z,102213.72
2022-12-03T09:17:37.112Z,102205.78
2022-12-03T09:20:05.239Z,102199.66
2022-12-03T09:22:32.510Z,102207.56
2022-12-03T09:25:01.623Z,102205.03
2022-12-03T09:27:28.606Z,102199.09
2022-12-03T09:29:55.450Z,102202.69
2022-12-03T09:32:24.299Z,102203.19
2022-12-03T09:34:51.577Z,102202.47
2022-12-03T09:37:18.725Z,102202.13
2022-12-03T09:39:45.561Z,102198.78
2022-12-03T09:42:13.063Z,102204.69
2022-12-03T09:44:39.866Z,102200.00
2022-12-03T09:47:08.749Z,102203.94
2022-12-03T09:49:37.523Z,102204.25
2022-12-03T09:52:06.164Z,102203.16
2022-12-03T09:54:33.737Z,102209.09
2022-12-03T09:57:02.755Z,102203.84
2022-12-03T09:59:35.139Z,102202.56
2022-12-03T10:02:02.760Z,102203.28
2022-12-03T10:04:30.472Z,102200.56
2022-12-03T10:06:58.764Z,102197.69
2022-12-03T10:09:28.538Z,102193.31
2022-12-03T10:11:59.865Z,102199.00
2022-12-03T10:14:28.376Z,102192.22
2022-12-03T10:16:55.841Z,102195.78
2022-12-03T10:19:30.424Z,102197.91
2022-12-03T10:21:57.618Z,102195.38
2022-12-03T10:24:30.081Z,102196.22
2022-12-03T10:27:02.195Z,102201.38
2022-12-03T10:29:34.909Z,102202.78
2022-12-03T10:32:03.241Z,102201.31
2022-12-03T10:34:35.910Z,102196.63
2022-12-03T10:37:28.249Z,102198.75
2022-12-03T10:39:59.229Z,102204.94
2022-12-03T10:42:41.195Z,102197.31
2022-12-03T10:45:25.354Z,102206.91
2022-12-03T10:48:14.011Z,102206.09
2022-12-03T10:50:52.764Z,102204.00
2022-12-03T10:53:22.141Z,102203.66
2022-12-03T10:55:51.635Z,102201.88
2022-12-03T10:58:24.635Z,102211.97
2022-12-03T11:00:53.497Z,102203.88
2022-12-03T11:03:33.848Z,102203.16
2022-12-03T11:06:02.695Z,102201.78
2022-12-03T11:08:36.444Z,102203.34
2022-12-03T11:11:32.555Z,102204.75
2022-12-03T11:14:18.068Z,102208.75
2022-12-03T11:16:48.168Z,102208.03
2022-12-03T11:19:38.799Z,102205.44
2022-12-03T11:22:05.585Z,102206.03
2022-12-03T11:24:34.371Z,102208.69
2022-12-03T11:27:05.478Z,102210.50
2022-12-03T11:29:54.958Z,102205.56
2022-12-03T11:32:43.540Z,102201.06
2022-12-03T11:35:25.341Z,102202.59
2022-12-03T11:37:52.071Z,102206.75
2022-12-03T11:40:18.676Z,102210.28
2022-12-03T11:42:47.602Z,102209.56
2022-12-03T11:45:23.485Z,102204.53
2022-12-03T11:47:59.234Z,102205.59
2022-12-03T11:50:44.179Z,102201.44
2022-12-03T11:53:10.880Z,102203.63
2022-12-03T11:55:40.958Z,102203.94
2022-12-03T11:58:35.083Z,102194.72
2022-12-03T12:01:05.026Z,102206.81
2022-12-03T12:03:50.399Z,102204.06
2022-12-03T12:06:19.603Z,102203.41
2022-12-03T12:08:52.425Z,102210.72
2022-12-03T12:11:20.268Z,102210.56
2022-12-03T12:13:57.984Z,102211.06
2022-12-03T12:16:50.402Z,102214.41
2022-12-03T12:19:43.255Z,102212.94
2022-12-03T12:22:25.345Z,102213.84
2022-12-03T12:25:05.336Z,102214.16
2022-12-03T12:27:49.518Z,102204.72
2022-12-03T12:30:19.857Z,102205.31
2022-12-03T12:32:47.208Z,102206.44
2022-12-03T12:35:32.865Z,102202.38
2022-12-03T12:38:16.845Z,102200.63
2022-12-03T12:40:46.847Z,102207.50
2022-12-03T12:43:27.251Z,102204.97
2022-12-03T12:46:13.627Z,102207.91
2022-12-03T12:48:45.754Z,102208.25
2022-12-03T12:51:15.473Z,102197.25
2022-12-03T12:53:42.943Z,102202.88
2022-12-03T12:56:30.972Z,102205.31
2022-12-03T12:59:20.497Z,102203.84
2022-12-03T13:01:49.722Z,102204.97
2022-12-03T13:04:19.726Z,102205.16
2022-12-03T13:06:49.130Z,102204.44
2022-12-03T13:09:21.471Z,102202.63
2022-12-03T13:11:57.726Z,102208.88
2022-12-03T13:14:26.754Z,102211.06
2022-12-03T13:16:56.692Z,102214.69
2022-12-03T13:19:25.644Z,102216.44
2022-12-03T13:21:58.555Z,102213.22
2022-12-03T13:24:34.321Z,102209.78
2022-12-03T13:27:20.686Z,102214.69
2022-12-03T13:29:57.505Z,102215.41
2022-12-03T13:32:43.604Z,102213.94
2022-12-03T13:35:10.313Z,102213.59
2022-12-03T13:37:38.517Z,102218.97
2022-12-03T13:40:25.843Z,102214.59
2022-12-03T13:42:53.185Z,102218.63
2022-12-03T13:45:19.932Z,102225.47
2022-12-03T13:47:55.884Z,102224.00
2022-12-03T13:50:38.854Z,102225.81
2022-12-03T13:53:11.868Z,102222.53
2022-12-03T13:55:42.989Z,102224.34
2022-12-03T13:58:09.736Z,102220.94
2022-12-03T14:00:36.613Z,102232.63
2022-12-03T14:03:04.314Z,102221.50
2022-12-03T14:05:31.508Z,102230.09
2022-12-03T14:08:01.707Z,102227.94
2022-12-03T14:10:29.207Z,102225.75
2022-12-03T14:12:56.729Z,102224.69
2022-12-03T14:15:24.891Z,102222.53
2022-12-03T14:17:51.979Z,102223.28
2022-12-03T14:20:19.327Z,102223.66
2022-12-03T14:22:46.011Z,102230.59
2022-12-03T14:25:12.768Z,102234.56
2022-12-03T14:27:39.996Z,102234.56
2022-12-03T14:30:07.277Z,102232.75
2022-12-03T14:32:33.978Z,102237.81
2022-12-03T14:35:03.971Z,102229.19
2022-12-03T14:37:35.028Z,102236.03
2022-12-03T14:40:03.648Z,102237.50
2022-12-03T14:42:30.393Z,102238.94
2022-12-03T14:44:57.131Z,102243.25
2022-12-03T14:47:23.972Z,102242.53
2022-12-03T14:49:52.042Z,102242.53
2022-12-03T14:52:19.920Z,102238.22
2022-12-03T14:54:46.916Z,102243.75
2022-12-03T14:57:14.713Z,102246.75
2022-12-03T14:59:42.820Z,102241.91
2022-12-03T15:02:10.705Z,102249.47
2022-12-03T15:04:38.585Z,102247.09
2022-12-03T15:07:05.492Z,102237.75
2022-12-03T15:09:32.264Z,102247.09
2022-12-03T15:12:00.111Z,102243.53
2022-12-03T15:14:26.976Z,102241.72
2022-12-03T15:16:53.854Z,102240.84
2022-12-03T15:19:20.664Z,102238.50
2022-12-03T15:21:47.450Z,102236.69
2022-12-03T15:24:14.152Z,102246.06
2022-12-03T15:26:41.120Z,102248.00
2022-12-03T15:29:08.137Z,102244.19
2022-12-03T15:31:35.035Z,102245.97
2022-12-03T15:34:01.922Z,102249.56
2022-12-03T15:36:28.698Z,102250.63
2022-12-03T15:38:56.487Z,102241.59
2022-12-03T15:41:28.850Z,102250.53
2022-12-03T15:43:59.035Z,102243.69
2022-12-03T15:46:27.997Z,102252.41
2022-12-03T15:48:55.534Z,102245.16
2022-12-03T15:51:22.627Z,102242.97
2022-12-03T15:53:49.529Z,102245.50
2022-12-03T15:56:16.741Z,102243.31
2022-12-03T15:58:43.694Z,102248.91
2022-12-03T16:01:10.831Z,102247.94
2022-12-03T16:03:37.687Z,102250.66
2022-12-03T16:06:04.610Z,102258.03
2022-12-03T16:08:31.357Z,102251.19
2022-12-03T16:10:58.168Z,102255.94
2022-12-03T16:13:25.049Z,102257.41
2022-12-03T16:15:51.865Z,102260.97
2022-12-03T16:18:18.728Z,102262.19
2022-12-03T16:20:45.675Z,102256.22
2022-12-03T16:23:12.446Z,102269.59
2022-12-03T16:25:39.152Z,102254.69
2022-12-03T16:28:05.896Z,102258.91
2022-12-03T16:30:32.726Z,102271.00
2022-12-03T16:32:59.551Z,102277.00
2022-12-03T16:35:26.385Z,102271.97
2022-12-03T16:37:53.145Z,102280.28
2022-12-03T16:40:19.901Z,102278.81
2022-12-03T16:42:46.828Z,102276.47
2022-12-03T16:45:33.563Z,102269.84
2022-12-03T16:48:01.725Z,102274.22
2022-12-03T16:50:30.225Z,102274.13
2022-12-03T16:52:57.769Z,102272.53
2022-12-03T16:55:24.615Z,102273.66
2022-12-03T16:57:51.412Z,102270.09
2022-12-03T17:00:18.566Z,102274.78
2022-12-03T17:02:45.480Z,102274.09
2022-12-03T17:05:12.338Z,102274.47
2022-12-03T17:07:39.349Z,102275.22
2022-12-03T17:10:06.829Z,102285.72
2022-12-03T17:13:00.737Z,102273.88
2022-12-03T17:15:20.267Z,102276.81
2022-12-03T17:17:47.043Z,102271.81
2022-12-03T17:20:14.791Z,102268.94
2022-12-03T17:22:41.984Z,102273.63
2022-12-03T17:25:09.567Z,102285.16
2022-12-03T17:27:42.104Z,102286.78
2022-12-03T17:30:12.027Z,102284.44
2022-12-03T17:32:38.832Z,102273.31
2022-12-03T17:35:06.056Z,102292.34
2022-12-03T17:37:32.844Z,102296.31
2022-12-03T17:39:59.709Z,102293.09
2022-12-03T17:42:26.881Z,102289.50
2022-12-03T17:44:53.632Z,102293.81
2022-12-03T17:47:20.359Z,102296.66
2022-12-03T17:49:47.109Z,102296.28
2022-12-03T17:52:13.931Z,102293.53
2022-12-03T17:55:08.595Z,102295.88
2022-12-03T17:57:27.521Z,102291.91
2022-12-03T17:59:54.370Z,102289.00
2022-12-03T18:02:21.296Z,102290.06
2022-12-03T18:04:48.752Z,102282.91
2022-12-03T18:07:15.480Z,102279.69
2022-12-03T18:09:42.227Z,102282.94
2022-12-03T18:12:09.027Z,102289.75
2022-12-03T18:14:35.764Z,102287.75
2022-12-03T18:17:02.493Z,102285.41
2022-12-03T18:19:29.237Z,102295.50
2022-12-03T18:21:56.011Z,102290.84
2022-12-03T18:24:23.030Z,102296.25
2022-12-03T18:26:50.340Z,102294.47
2022-12-03T18:29:17.168Z,102295.72
2022-12-03T18:31:44.009Z,102293.50
2022-12-03T18:34:10.850Z,102291.91
2022-12-03T18:36:37.816Z,102291.16
2022-12-03T18:39:08.396Z,102283.63
2022-12-03T18:41:35.731Z,102296.59
2022-12-03T18:44:10.901Z,102293.50
2022-12-03T18:46:52.871Z,102299.09
2022-12-03T18:49:21.756Z,102304.69
2022-12-03T18:51:49.376Z,102299.63
2022-12-03T18:54:18.072Z,102304.69
2022-12-03T18:56:44.835Z,102303.44
2022-12-03T18:59:12.260Z,102308.47
2022-12-03T19:01:39.058Z,102305.22
2022-12-03T19:04:05.912Z,102307.34
2022-12-03T19:06:32.740Z,102309.13
2022-12-03T19:08:59.642Z,102317.41
2022-12-03T19:11:26.543Z,102306.28
2022-12-03T19:13:53.444Z,102313.50
2022-12-03T19:16:20.407Z,102318.53
2022-12-03T19:18:47.305Z,102325.34
2022-12-03T19:21:16.284Z,102320.66
2022-12-03T19:24:04.297Z,102315.63
2022-12-03T19:26:30.951Z,102319.22
2022-12-03T19:28:57.887Z,102319.22
2022-12-03T19:31:24.866Z,102317.75
2022-12-03T19:33:52.208Z,102327.81
2022-12-03T19:36:22.612Z,102322.78
2022-12-03T19:38:56.714Z,102322.78
2022-12-03T19:41:27.289Z,102334.31
2022-12-03T19:43:55.793Z,102320.66
2022-12-03T19:46:24.497Z,102324.44
2022-12-03T19:48:51.465Z,102319.56
2022-12-03T19:51:34.088Z,102318.09
2022-12-03T19:54:02.796Z,102317.22
2022-12-03T19:56:32.536Z,102313.06
2022-12-03T19:58:59.723Z,102318.50
2022-12-03T20:01:29.320Z,102314.53
2022-12-03T20:03:58.397Z,102319.56
2022-12-03T20:06:28.907Z,102316.31
2022-12-03T20:08:57.834Z,102321.16
2022-12-03T20:11:27.140Z,102315.06
2022-12-03T20:13:57.327Z,102317.41
2022-12-03T20:16:25.212Z,102326.81
2022-12-03T20:18:55.440Z,102323.94
2022-12-03T20:21:22.199Z,102331.16
2022-12-03T20:23:49.027Z,102326.66
2022-12-03T20:26:18.164Z,102332.59
2022-12-03T20:28:45.589Z,102340.88
2022-12-03T20:31:18.511Z,102323.63
2022-12-03T20:33:48.077Z,102331.19
2022-12-03T20:36:16.539Z,102333.34
2022-12-03T20:38:43.839Z,102327.41
2022-12-03T20:41:14.085Z,102338.75
2022-12-03T20:43:41.181Z,102340.00
2022-12-03T20:46:13.256Z,102332.06
2022-12-03T20:48:41.392Z,102339.78
2022-12-03T20:51:10.717Z,102331.47
2022-12-03T20:53:38.108Z,102328.44
2022-12-03T20:56:06.282Z,102326.44
2022-12-03T20:58:33.544Z,102324.50
2022-12-03T21:01:18.591Z,102326.81
2022-12-03T21:03:46.642Z,102325.56
2022-12-03T21:06:14.350Z,102320.53
2022-12-03T21:08:42.788Z,102321.41
2022-12-03T21:11:12.675Z,102323.56
2022-12-03T21:13:43.709Z,102325.34
2022-12-03T21:16:13.471Z,102324.47
2022-12-03T21:18:41.142Z,102317.44
2022-12-03T21:21:08.684Z,102318.91
2022-12-03T21:23:35.894Z,102326.81
2022-12-03T21:26:09.345Z,102328.59
2022-12-03T21:28:38.600Z,102325.34
2022-12-03T21:31:11.069Z,102321.72
2022-12-03T21:33:38.067Z,102320.66
2022-12-03T21:36:06.168Z,102320.84
2022-12-03T21:38:33.344Z,102315.06
2022-12-03T21:41:01.375Z,102325.50
2022-12-03T21:43:28.760Z,102324.59
2022-12-03T21:45:55.954Z,102326.38
2022-12-03T21:48:22.818Z,102324.91
2022-12-03T21:51:11.511Z,102322.03
2022-12-03T21:53:43.289Z,102317.72
2022-12-03T21:56:16.048Z,102314.50
2022-12-03T21:58:43.972Z,102324.84
2022-12-03T22:01:12.267Z,102316.56
2022-12-03T22:03:39.040Z,102312.84
2022-12-03T22:06:06.067Z,102319.53
2022-12-03T22:08:32.847Z,102316.31
2022-12-03T22:11:04.443Z,102326.38
2022-12-03T22:13:31.315Z,102317.22
2022-12-03T22:15:58.116Z,102318.50
2022-12-03T22:18:24.879Z,102322.78
2022-12-03T22:20:51.602Z,102313.50
2022-12-03T22:23:18.328Z,102313.50
2022-12-03T22:25:45.042Z,102315.28
2022-12-03T22:28:11.783Z,102320.88
2022-12-03T22:30:41.671Z,102322.44
2022-12-03T22:33:08.481Z,102316.72
2022-12-03T22:35:35.284Z,102313.81
2022-12-03T22:38:02.069Z,102310.59
2022-12-03T22:40:28.783Z,102319.91
2022-12-03T22:42:55.559Z,102321.03
2022-12-03T22:45:22.279Z,102315.63
2022-12-03T22:47:49.004Z,102321.03
2022-12-03T22:50:18.513Z,102320.44
2022-12-03T22:52:45.227Z,102316.13
2022-12-03T22:55:11.971Z,102314.53
2022-12-03T22:57:39.181Z,102318.09
2022-12-03T23:00:09.842Z,102316.31
2022-12-03T23:02:36.671Z,102319.56
2022-12-03T23:05:03.764Z,102319.38
2022-12-03T23:07:30.697Z,102319.22
2022-12-03T23:09:57.910Z,102322.44
2022-12-03T23:12:24.777Z,102327.47
2022-12-03T23:14:55.267Z,102327.13
2022-12-03T23:17:22.019Z,102327.47
2022-12-03T23:19:48.896Z,102330.38
2022-12-03T23:22:15.630Z,102331.47
2022-12-03T23:24:42.333Z,102330.25
2022-12-03T23:27:09.231Z,102325.78
2022-12-03T23:29:35.965Z,102323.66
2022-12-03T23:32:02.740Z,102329.03
2022-12-03T23:34:29.657Z,102333.00
2022-12-03T23:36:56.448Z,102334.09
2022-12-03T23:39:23.227Z,102335.56
2022-12-03T23:41:51.497Z,102341.66
2022-12-03T23:44:18.387Z,102343.53
2022-12-03T23:46:45.175Z,102343.16
2022-12-03T23:49:12.005Z,102343.19
2022-12-03T23:51:38.712Z,102330.81
2022-12-03T23:54:05.501Z,102336.38
2022-12-03T23:56:32.501Z,102342.66
2022-12-03T23:58:59.323Z,102339.47
